createdAt,value
2022-11-09T00:02:02.465Z,80.97
2022-11-09T00:04:31.479Z,71.30
2022-11-09T00:07:01.812Z,77.72
2022-11-09T00:09:30.805Z,69.57
2022-11-09T00:12:07.789Z,77.27
2022-11-09T00:14:43.980Z,70.47
2022-11-09T00:17:12.955Z,71.23
2022-11-09T00:19:48.052Z,67.20
2022-11-09T00:22:21.597Z,61.67
2022-11-09T00:24:57.926Z,66.73
2022-11-09T00:27:30.877Z,67.93
2022-11-09T00:30:23.930Z,69.30
2022-11-09T00:33:03.890Z,66.00
2022-11-09T00:35:42.760Z,67.50
2022-11-09T00:40:03.116Z,73.17
2022-11-09T00:40:56.485Z,65.70
2022-11-09T00:43:33.472Z,62.17
2022-11-09T00:46:08.987Z,65.33
2022-11-09T00:48:42.803Z,60.10
2022-11-09T00:51:16.141Z,69.20
2022-11-09T00:53:46.622Z,65.73
2022-11-09T00:56:18.394Z,68.83
2022-11-09T00:58:50.947Z,63.43
2022-11-09T01:01:26.710Z,67.60
2022-11-09T01:06:48.053Z,64.97
2022-11-09T01:09:22.084Z,69.47
2022-11-09T01:11:53.956Z,61.50
2022-11-09T01:14:44.855Z,68.37
2022-11-09T01:17:15.356Z,69.23
2022-11-09T01:19:46.630Z,70.53
2022-11-09T01:22:17.329Z,63.27
2022-11-09T01:24:56.516Z,61.97
2022-11-09T01:27:55.370Z,67.93
2022-11-09T01:30:24.271Z,65.93
2022-11-09T01:33:05.202Z,70.00
2022-11-09T01:38:40.405Z,69.20
2022-11-09T01:41:12.309Z,60.20
2022-11-09T01:43:41.133Z,68.13
2022-11-09T01:46:23.253Z,70.75
2022-11-09T01:49:08.236Z,64.58
2022-11-09T01:51:45.806Z,71.05
2022-11-09T01:57:16.866Z,57.05
2022-11-09T01:59:52.687Z,72.03
2022-11-09T02:02:25.473Z,77.07
2022-11-09T02:05:03.294Z,63.87
2022-11-09T02:07:35.675Z,63.00
2022-11-09T02:10:14.362Z,68.15
2022-11-09T02:12:46.180Z,63.60
2022-11-09T02:15:20.959Z,75.00
2022-11-09T02:17:54.444Z,63.50
2022-11-09T02:20:31.206Z,65.70
2022-11-09T02:23:03.306Z,63.73
2022-11-09T02:25:37.224Z,66.00
2022-11-09T02:28:10.170Z,60.73
2022-11-09T02:30:40.255Z,62.15
2022-11-09T02:33:18.224Z,58.07
2022-11-09T02:35:56.677Z,59.35
2022-11-09T02:38:31.736Z,52.30
2022-11-09T02:41:01.156Z,52.62
2022-11-09T02:43:33.298Z,54.42
2022-11-09T02:46:03.681Z,47.80
2022-11-09T02:48:35.216Z,47.07
2022-11-09T02:51:05.521Z,49.48
2022-11-09T02:53:35.416Z,50.15
2022-11-09T02:56:07.596Z,47.10
2022-11-09T02:59:06.295Z,48.48
2022-11-09T03:01:38.110Z,47.20
2022-11-09T03:04:15.787Z,45.47
2022-11-09T03:06:46.428Z,43.37
2022-11-09T03:09:16.983Z,45.93
2022-11-09T03:11:49.942Z,54.23
2022-11-09T03:14:22.079Z,48.57
2022-11-09T03:16:53.850Z,44.87
2022-11-09T03:19:25.736Z,47.83
2022-11-09T03:21:54.439Z,43.55
2022-11-09T03:24:26.389Z,44.90
2022-11-09T03:26:55.403Z,52.50
2022-11-09T03:29:27.424Z,49.80
2022-11-09T03:34:49.631Z,53.25
2022-11-09T03:37:27.786Z,52.53
2022-11-09T03:39:58.043Z,58.20
2022-11-09T03:42:32.980Z,52.47
2022-11-09T03:45:40.733Z,48.47
2022-11-09T03:48:28.987Z,53.50
2022-11-09T03:54:30.778Z,57.13
2022-11-09T03:57:53.836Z,55.03
2022-11-09T04:00:38.811Z,51.17
2022-11-09T04:06:18.153Z,52.73
2022-11-09T04:09:23.600Z,47.70
2022-11-09T04:19:14.638Z,53.20
2022-11-09T04:21:46.953Z,51.90
2022-11-09T04:27:35.851Z,46.87
2022-11-09T04:30:06.820Z,54.77
2022-11-09T04:32:50.555Z,59.67
2022-11-09T04:35:19.288Z,50.67
2022-11-09T04:38:05.913Z,48.67
2022-11-09T04:40:41.052Z,53.23
2022-11-09T04:43:14.323Z,56.17
2022-11-09T04:45:49.088Z,53.50
2022-11-09T04:48:17.823Z,50.13
2022-11-09T04:50:46.671Z,52.13
2022-11-09T04:53:16.845Z,54.37
2022-11-09T04:55:45.822Z,49.17
2022-11-09T04:58:14.807Z,53.97
2022-11-09T05:00:47.194Z,49.77
2022-11-09T05:03:16.268Z,47.87
2022-11-09T05:05:48.677Z,50.30
2022-11-09T05:08:17.828Z,50.23
2022-11-09T05:10:46.429Z,51.17
2022-11-09T05:13:18.441Z,49.60
2022-11-09T05:15:47.439Z,54.60
2022-11-09T05:18:16.070Z,53.67
2022-11-09T05:20:44.653Z,48.90
2022-11-09T05:23:31.145Z,51.13
2022-11-09T05:26:01.689Z,56.23
2022-11-09T05:28:33.491Z,45.10
2022-11-09T05:31:02.337Z,48.67
2022-11-09T05:33:31.042Z,53.90
2022-11-09T05:35:59.846Z,61.07
2022-11-09T05:38:28.512Z,52.20
2022-11-09T05:40:58.788Z,59.10
2022-11-09T05:43:35.757Z,58.07
2022-11-09T05:46:09.078Z,54.07
2022-11-09T05:48:37.890Z,54.50
2022-11-09T05:51:08.252Z,55.23
2022-11-09T05:53:43.558Z,57.70
2022-11-09T05:56:11.851Z,57.77
2022-11-09T05:58:52.293Z,55.37
2022-11-09T06:01:25.088Z,57.00
2022-11-09T06:03:58.881Z,52.03
2022-11-09T06:06:29.531Z,55.13
2022-11-09T06:09:01.613Z,49.67
2022-11-09T06:11:30.697Z,53.07
2022-11-09T06:13:59.633Z,56.07
2022-11-09T06:16:31.608Z,54.57
2022-11-09T06:19:02.015Z,52.67
2022-11-09T06:21:35.038Z,51.43
2022-11-09T06:24:06.973Z,52.63
2022-11-09T06:26:35.774Z,48.37
2022-11-09T06:29:05.887Z,52.43
2022-11-09T06:31:34.580Z,46.18
2022-11-09T06:34:05.112Z,45.70
2022-11-09T06:36:37.308Z,53.83
2022-11-09T06:39:13.041Z,45.55
2022-11-09T06:41:46.216Z,48.97
2022-11-09T06:44:14.235Z,55.20
2022-11-09T06:46:47.491Z,51.80
2022-11-09T06:49:35.971Z,53.30
2022-11-09T06:52:10.682Z,56.00
2022-11-09T06:54:45.375Z,50.33
2022-11-09T06:57:23.172Z,47.58
2022-11-09T07:00:23.078Z,52.08
2022-11-09T07:03:03.515Z,54.98
2022-11-09T07:05:32.789Z,50.48
2022-11-09T07:08:01.603Z,54.10
2022-11-09T07:10:41.550Z,52.75
2022-11-09T07:13:10.874Z,53.23
2022-11-09T07:15:50.925Z,48.78
2022-11-09T07:18:24.767Z,52.83
2022-11-09T07:20:53.693Z,51.08
2022-11-09T07:23:23.893Z,102.15
2022-11-09T07:25:56.782Z,83.12
2022-11-09T07:28:26.931Z,56.40
2022-11-09T07:30:55.662Z,55.88
2022-11-09T07:33:25.739Z,50.63
2022-11-09T07:35:59.300Z,54.10
2022-11-09T07:38:30.159Z,47.33
2022-11-09T07:41:04.611Z,50.85
2022-11-09T07:43:34.473Z,53.52
2022-11-09T07:46:10.074Z,50.03
2022-11-09T07:48:42.611Z,82.12
2022-11-09T07:51:14.175Z,51.85
2022-11-09T07:53:43.054Z,55.38
2022-11-09T07:56:11.809Z,48.92
2022-11-09T07:58:44.341Z,49.05
2022-11-09T08:01:16.251Z,56.80
2022-11-09T08:03:45.016Z,52.67
2022-11-09T08:06:18.225Z,56.05
2022-11-09T08:08:46.571Z,56.05
2022-11-09T08:11:25.679Z,55.75
2022-11-09T08:14:02.392Z,50.10
2022-11-09T08:16:37.746Z,55.45
2022-11-09T08:19:14.384Z,56.30
2022-11-09T08:21:47.998Z,56.37
2022-11-09T08:24:20.054Z,49.70
2022-11-09T08:26:52.430Z,52.45
2022-11-09T08:29:25.909Z,51.23
2022-11-09T08:31:56.376Z,63.65
2022-11-09T08:34:25.291Z,56.55
2022-11-09T08:36:55.389Z,57.58
2022-11-09T08:39:27.359Z,60.83
2022-11-09T08:42:02.343Z,60.38
2022-11-09T08:44:33.871Z,59.03
2022-11-09T08:47:17.108Z,59.93
2022-11-09T08:49:56.194Z,58.95
2022-11-09T08:52:25.370Z,62.15
2022-11-09T08:54:56.060Z,94.60
2022-11-09T08:57:28.043Z,55.52
2022-11-09T09:00:17.447Z,61.50
2022-11-09T09:02:46.641Z,57.55
2022-11-09T09:05:15.897Z,59.30
2022-11-09T09:07:47.565Z,55.85
2022-11-09T09:10:16.229Z,62.10
2022-11-09T09:12:46.288Z,58.68
2022-11-09T09:15:17.705Z,57.33
2022-11-09T09:17:47.932Z,57.45
2022-11-09T09:20:18.904Z,56.55
2022-11-09T09:22:52.689Z,66.00
2022-11-09T09:25:21.489Z,56.37
2022-11-09T09:27:52.079Z,61.20
2022-11-09T09:30:25.453Z,61.95
2022-11-09T09:32:56.071Z,64.05
2022-11-09T09:35:32.037Z,58.40
2022-11-09T09:38:01.089Z,56.65
2022-11-09T09:40:38.786Z,55.70
2022-11-09T09:43:26.298Z,58.95
2022-11-09T09:45:56.711Z,59.45
2022-11-09T09:48:54.198Z,66.10
2022-11-09T09:51:35.081Z,58.98
2022-11-09T09:54:06.728Z,66.53
2022-11-09T09:56:37.874Z,53.17
2022-11-09T09:59:30.548Z,60.60
2022-11-09T10:02:00.709Z,63.08
2022-11-09T10:04:41.155Z,56.73
2022-11-09T10:07:18.502Z,56.53
2022-11-09T10:10:30.088Z,47.38
2022-11-09T10:13:09.644Z,46.85
2022-11-09T10:16:21.634Z,48.35
2022-11-09T10:18:55.385Z,48.02
2022-11-09T10:21:46.534Z,46.15
2022-11-09T10:24:27.957Z,44.45
2022-11-09T10:27:06.201Z,44.58
2022-11-09T10:29:55.076Z,44.25
2022-11-09T10:32:31.370Z,45.33
2022-11-09T10:35:44.529Z,43.02
2022-11-09T10:38:19.704Z,45.88
2022-11-09T10:40:58.386Z,40.40
2022-11-09T10:43:27.122Z,39.95
2022-11-09T10:46:09.332Z,41.25
2022-11-09T10:48:40.558Z,38.53
2022-11-09T10:51:28.481Z,36.88
2022-11-09T10:54:18.016Z,36.10
2022-11-09T10:57:06.732Z,42.93
2022-11-09T10:59:44.550Z,44.03
2022-11-09T11:02:33.900Z,33.20
2022-11-09T11:05:12.833Z,38.08
2022-11-09T11:07:43.139Z,35.10
2022-11-09T11:10:21.231Z,37.73
2022-11-09T11:13:04.990Z,34.55
2022-11-09T11:15:45.610Z,34.80
2022-11-09T11:18:30.085Z,31.45
2022-11-09T11:21:19.836Z,34.27
2022-11-09T11:24:09.873Z,33.80
2022-11-09T11:26:59.626Z,33.90
2022-11-09T11:29:49.248Z,32.63
2022-11-09T11:32:21.019Z,30.85
2022-11-09T11:35:00.250Z,32.05
2022-11-09T11:37:35.845Z,33.78
2022-11-09T11:40:12.455Z,38.48
2022-11-09T11:45:45.471Z,54.53
2022-11-09T11:48:44.548Z,60.90
2022-11-09T11:51:28.212Z,42.33
2022-11-09T11:54:01.682Z,47.93
2022-11-09T11:57:00.339Z,46.08
2022-11-09T11:59:54.537Z,48.95
2022-11-09T12:06:27.370Z,37.20
2022-11-09T12:09:43.908Z,37.30
2022-11-09T12:25:49.654Z,38.23
2022-11-09T12:28:48.176Z,47.73
2022-11-09T12:31:39.117Z,42.35
2022-11-09T12:38:18.179Z,42.10
2022-11-09T12:41:00.915Z,39.55
2022-11-09T12:47:14.782Z,43.87
2022-11-09T12:56:28.192Z,39.30
2022-11-09T12:59:32.254Z,42.43
2022-11-09T13:05:33.716Z,46.25
2022-11-09T13:11:01.762Z,54.53
2022-11-09T13:13:31.883Z,43.05
2022-11-09T13:16:49.835Z,38.53
2022-11-09T13:29:32.132Z,43.23
2022-11-09T13:36:00.278Z,48.38
2022-11-09T13:39:03.396Z,45.45
2022-11-09T13:42:04.442Z,43.95
2022-11-09T13:50:49.213Z,40.83
2022-11-09T14:00:27.888Z,37.73
2022-11-09T14:16:39.423Z,41.20
2022-11-09T14:31:54.013Z,62.53
2022-11-09T14:34:42.980Z,71.92
2022-11-09T14:37:20.791Z,43.83
2022-11-09T14:39:54.536Z,47.20
2022-11-09T14:48:20.680Z,39.48
2022-11-09T14:51:10.673Z,43.98
2022-11-09T14:53:44.837Z,57.53
2022-11-09T14:56:23.573Z,54.58
2022-11-09T14:58:58.613Z,46.58
2022-11-09T15:01:28.530Z,48.92
2022-11-09T15:04:21.965Z,47.55
2022-11-09T15:07:02.636Z,45.43
2022-11-09T15:09:40.113Z,41.63
2022-11-09T15:27:12.601Z,49.80
2022-11-09T15:30:47.184Z,53.75
2022-11-09T15:46:09.028Z,60.35
2022-11-09T15:48:41.002Z,61.08
2022-11-09T15:51:10.635Z,58.13
2022-11-09T15:53:40.138Z,58.83
2022-11-09T15:56:29.691Z,60.85
2022-11-09T15:59:04.086Z,71.42
2022-11-09T16:07:57.525Z,66.55
2022-11-09T16:10:39.533Z,62.40
2022-11-09T16:13:06.251Z,63.23
2022-11-09T16:15:41.188Z,69.25
2022-11-09T16:18:14.854Z,58.83
2022-11-09T16:20:49.235Z,66.05
2022-11-09T16:23:22.995Z,67.32
2022-11-09T16:25:54.629Z,63.65
2022-11-09T16:28:30.005Z,74.25
2022-11-09T16:30:58.997Z,71.70
2022-11-09T16:33:42.931Z,76.62
2022-11-09T16:36:18.268Z,71.22
2022-11-09T16:38:59.519Z,72.25
2022-11-09T16:41:34.841Z,74.35
2022-11-09T16:44:13.449Z,82.57
2022-11-09T16:46:44.704Z,75.10
2022-11-09T16:49:13.757Z,73.02
2022-11-09T16:51:45.989Z,87.20
2022-11-09T16:54:17.808Z,82.53
2022-11-09T16:56:48.243Z,111.55
2022-11-09T16:59:20.413Z,106.35
2022-11-09T17:01:57.985Z,112.90
2022-11-09T17:04:39.018Z,105.03
2022-11-09T17:07:05.429Z,96.65
2022-11-09T17:09:36.858Z,100.97
2022-11-09T17:12:07.843Z,96.30
2022-11-09T17:14:36.746Z,83.67
2022-11-09T17:17:08.531Z,87.75
2022-11-09T17:19:49.947Z,81.85
2022-11-09T17:22:20.465Z,84.28
2022-11-09T17:24:49.141Z,72.93
2022-11-09T17:27:20.435Z,74.40
2022-11-09T17:29:59.489Z,75.65
2022-11-09T17:32:28.406Z,79.70
2022-11-09T17:34:57.109Z,77.58
2022-11-09T17:37:26.451Z,73.83
2022-11-09T17:39:56.806Z,77.10
2022-11-09T17:42:29.021Z,77.37
2022-11-09T17:45:17.392Z,90.03
2022-11-09T17:50:35.089Z,83.82
2022-11-09T17:53:37.016Z,87.05
2022-11-09T17:56:11.865Z,99.47
2022-11-09T17:58:44.758Z,80.17
2022-11-09T18:01:25.253Z,82.60
2022-11-09T18:03:57.405Z,82.65
2022-11-09T18:06:43.226Z,82.05
2022-11-09T18:12:13.694Z,83.90
2022-11-09T18:14:45.830Z,79.90
2022-11-09T18:17:17.624Z,72.92
2022-11-09T18:19:52.309Z,75.53
2022-11-09T18:22:24.376Z,73.40
2022-11-09T18:25:01.807Z,75.20
2022-11-09T18:27:33.700Z,82.08
2022-11-09T18:30:03.977Z,77.97
2022-11-09T18:32:40.216Z,81.65
2022-11-09T18:35:17.171Z,79.42
2022-11-09T18:37:50.083Z,77.62
2022-11-09T18:40:25.420Z,76.82
2022-11-09T18:43:03.037Z,82.77
2022-11-09T18:45:39.744Z,78.50
2022-11-09T18:48:21.569Z,80.90
2022-11-09T18:51:13.926Z,81.17
2022-11-09T18:53:50.193Z,79.03
2022-11-09T18:56:35.897Z,79.17
2022-11-09T18:59:18.338Z,81.00
2022-11-09T19:02:00.343Z,80.13
2022-11-09T19:04:53.739Z,86.37
2022-11-09T19:07:53.231Z,87.13
2022-11-09T19:10:11.280Z,80.53
2022-11-09T19:12:58.854Z,72.82
2022-11-09T19:15:21.836Z,75.80
2022-11-09T19:17:58.142Z,82.00
2022-11-09T19:20:35.831Z,77.33
2022-11-09T19:23:13.267Z,74.90
2022-11-09T19:25:46.001Z,84.43
2022-11-09T19:28:21.142Z,74.87
2022-11-09T19:33:53.100Z,66.77
2022-11-09T19:36:31.528Z,69.67
2022-11-09T19:39:04.093Z,78.90
2022-11-09T19:41:34.403Z,74.73
2022-11-09T19:44:06.710Z,70.77
2022-11-09T19:46:39.502Z,73.83
2022-11-09T19:49:23.430Z,73.17
2022-11-09T19:52:00.543Z,77.60
2022-11-09T19:54:35.267Z,66.77
2022-11-09T19:57:18.947Z,75.97
2022-11-09T20:02:31.206Z,67.87
2022-11-09T20:05:00.290Z,66.07
2022-11-09T20:07:31.148Z,67.40
2022-11-09T20:10:06.652Z,64.20
2022-11-09T20:13:00.031Z,74.07
2022-11-09T20:15:33.657Z,65.37
2022-11-09T20:18:06.846Z,73.03
2022-11-09T20:24:02.077Z,71.70
2022-11-09T20:26:35.615Z,70.17
2022-11-09T20:31:47.684Z,64.50
2022-11-09T20:34:25.067Z,103.37
2022-11-09T20:36:55.421Z,85.80
2022-11-09T20:39:36.980Z,71.73
2022-11-09T20:42:09.432Z,63.53
2022-11-09T20:47:57.352Z,54.90
2022-11-09T20:50:10.902Z,64.30
2022-11-09T20:52:44.360Z,61.37
2022-11-09T20:55:14.834Z,70.17
2022-11-09T20:57:48.281Z,66.00
2022-11-09T21:00:25.176Z,66.40
2022-11-09T21:03:23.987Z,60.67
2022-11-09T21:06:08.787Z,58.57
2022-11-09T21:08:38.046Z,63.83
2022-11-09T21:11:10.113Z,65.93
2022-11-09T21:13:43.055Z,68.63
2022-11-09T21:16:14.913Z,71.67
2022-11-09T21:21:40.531Z,66.43
2022-11-09T21:24:36.745Z,68.33
2022-11-09T21:27:48.991Z,63.87
2022-11-09T21:30:23.203Z,72.77
2022-11-09T21:35:59.633Z,73.97
2022-11-09T21:38:30.378Z,65.60
2022-11-09T21:41:08.521Z,71.03
2022-11-09T21:43:40.891Z,72.83
2022-11-09T21:46:13.624Z,71.13
2022-11-09T21:48:49.789Z,64.17
2022-11-09T21:51:27.698Z,69.00
2022-11-09T21:53:58.172Z,67.17
2022-11-09T21:56:35.626Z,64.87
2022-11-09T21:59:08.186Z,69.00
2022-11-09T22:01:37.409Z,73.47
2022-11-09T22:04:17.910Z,70.77
2022-11-09T22:07:07.009Z,73.47
2022-11-09T22:09:32.468Z,67.67
2022-11-09T22:12:16.587Z,71.50
2022-11-09T22:15:06.140Z,71.67
2022-11-09T22:17:38.711Z,64.97
2022-11-09T22:20:32.458Z,71.33
2022-11-09T22:23:03.055Z,68.70
2022-11-09T22:25:33.474Z,78.03
2022-11-09T22:28:02.244Z,73.03
2022-11-09T22:30:35.763Z,84.67
2022-11-09T22:33:08.283Z,75.40
2022-11-09T22:35:43.443Z,73.07
2022-11-09T22:38:12.099Z,76.90
2022-11-09T22:40:42.599Z,80.67
2022-11-09T22:43:27.813Z,73.93
2022-11-09T22:46:00.859Z,81.97
2022-11-09T22:48:48.840Z,82.87
2022-11-09T22:51:22.501Z,89.00
2022-11-09T22:53:52.010Z,80.20
2022-11-09T22:56:23.926Z,83.73
2022-11-09T22:59:10.980Z,74.60
2022-11-09T23:01:33.790Z,87.33
2022-11-09T23:04:02.574Z,83.60
2022-11-09T23:06:33.774Z,85.80
2022-11-09T23:11:56.839Z,90.97
2022-11-09T23:14:43.744Z,97.03
2022-11-09T23:17:15.507Z,87.33
2022-11-09T23:19:53.251Z,84.23
2022-11-09T23:22:22.190Z,96.77
2022-11-09T23:25:11.936Z,103.67
2022-11-09T23:27:40.862Z,92.90
2022-11-09T23:30:09.785Z,100.17
2022-11-09T23:32:38.430Z,89.90
2022-11-09T23:35:07.727Z,91.23
2022-11-09T23:37:36.430Z,94.23
2022-11-09T23:40:09.818Z,94.67
2022-11-09T23:42:41.889Z,94.13
2022-11-09T23:45:11.160Z,96.40
2022-11-09T23:47:42.576Z,88.63
2022-11-09T23:50:14.021Z,89.37
2022-11-09T23:52:44.140Z,93.03
2022-11-09T23:55:12.981Z,98.50
2022-11-09T23:57:44.797Z,93.20
